Date,TemperatureHighF,TemperatureAvgF,TemperatureLowF,DewpointHighF,DewpointAvgF,DewpointLowF,HumidityHigh,HumidityAvg,HumidityLow,PressureMaxIn,PressureMinIn,WindSpeedMaxMPH,WindSpeedAvgMPH,GustSpeedMaxMPH,PrecipitationSumIn
2013-10-1,80,64,51,63,58,50,100,82,55,30.03,29.91,4,0,0,0.00
2013-10-2,84,69,57,66,62,56,99,80,51,30.02,29.92,4,0,0,0.00
2013-10-3,81,67,56,64,60,55,100,79,55,30.12,30.02,5,0,0,0.00
2013-10-4,87,72,57,68,64,56,99,79,51,30.07,29.97,3,0,0,0.00
2013-10-5,76,68,64,68,65,63,99,92,77,30.09,30.01,5,1,0,0.00
2013-10-6,74,68,65,70,67,64,100,97,86,30.09,30.01,6,2,0,0.00
2013-10-7,78,68,58,72,66,57,100,94,78,30.01,29.80,10,1,0,0.30
2013-10-8,66,57,50,56,50,48,96,81,52,30.31,30.01,2,0,0,0.30
2013-10-9,62,58,50,54,51,45,96,80,64,30.36,30.25,9,1,0,0.00
2013-10-10,61,58,55,60,57,52,99,94,78,30.25,30.04,5,1,0,0.11
2013-10-11,64,62,60,63,61,59,100,97,89,30.05,29.97,6,1,0,0.50
2013-10-12,68,63,60,60,56,51,90,80,65,30.24,30.04,14,2,0,0.50
2013-10-13,61,61,61,57,56,56,86,86,85,30.24,30.24,7,4,0,0.00
2013-10-16,67,60,50,61,58,50,100,93,78,30.09,29.93,3,0,0,0.00
2013-10-17,73,64,60,65,62,60,99,92,73,29.93,29.71,5,1,0,0.00
2013-10-18,67,60,47,64,49,44,95,69,50,30.00,29.71,7,1,0,0.00
2013-10-19,63,52,40,57,48,39,99,86,65,30.01,29.78,4,0,0,0.02
2013-10-20,63,54,42,56,44,38,96,71,42,30.09,29.79,5,1,0,0.02
2013-10-21,69,51,37,47,42,37,98,74,37,30.18,30.01,5,1,0,0.00
2013-10-22,68,51,42,53,46,41,99,84,54,30.00,29.78,5,0,0,0.00
2013-10-23,53,46,39,49,42,37,96,85,67,29.83,29.61,3,0,0,0.02
2013-10-24,53,43,37,37,33,29,92,71,43,30.05,29.79,7,1,0,0.02
2013-10-25,53,43,33,37,33,30,87,70,47,30.27,30.06,7,1,0,0.00
2013-10-26,57,44,30,37,33,29,96,69,39,30.26,29.93,8,1,0,0.00
2013-10-27,58,48,37,38,36,33,85,63,43,30.15,29.90,5,1,0,0.00
2013-10-28,62,45,31,42,36,30,97,74,44,30.31,30.15,5,0,0,0.00
2013-10-29,58,45,36,45,40,35,98,83,58,30.41,30.32,7,1,0,0.00
2013-10-30,58,47,37,55,46,36,99,95,87,30.36,30.21,3,0,0,0.01
2013-10-31,70,61,51,63,58,51,100,89,75,30.25,29.83,8,2,0,0.01